Time;durP1;ratioP1;P1;durP2;ratioP2;P2;SDS_P1;SDS_P2;PMS_P1;PMS_P2;Temp;Humidity;BMP_temperature;BMP_pressure;BME280_temperature;BME280_humidity;BME280_pressure;Samples;Min_cycle;Max_cycle;Signal;HPM_P1;HPM_P2
2023/06/05 00:01:58;;;;;;;4.83;4.07;;;12.50;99.90;;;;;;4992482;28;20969;-63
2023/06/05 00:04:27;;;;;;;4.80;4.30;;;12.50;99.90;;;;;;4989391;28;20499;-62
2023/06/05 00:06:56;;;;;;;6.60;4.50;;;12.40;99.90;;;;;;4995264;28;20480;-63
2023/06/05 00:09:24;;;;;;;4.40;4.00;;;12.40;99.90;;;;;;4992358;28;20555;-62
2023/06/05 00:11:52;;;;;;;5.67;4.17;;;12.30;99.90;;;;;;4990975;28;20499;-62
2023/06/05 00:14:20;;;;;;;5.20;4.70;;;12.30;99.90;;;;;;4992776;28;20670;-62
2023/06/05 00:16:49;;;;;;;4.23;3.93;;;12.20;99.90;;;;;;4994483;28;20468;-61
2023/06/05 00:19:17;;;;;;;4.40;4.00;;;12.30;99.90;;;;;;4995140;28;20476;-61
2023/06/05 00:21:47;;;;;;;4.93;4.23;;;12.20;99.90;;;;;;4994466;28;20618;-63
2023/06/05 00:24:15;;;;;;;5.37;4.83;;;12.20;99.90;;;;;;4995049;28;20495;-63
2023/06/05 00:26:42;;;;;;;4.90;4.50;;;12.20;99.90;;;;;;5005873;28;20465;-62
2023/06/05 00:29:10;;;;;;;5.30;4.80;;;12.10;99.90;;;;;;5021053;28;20477;-61
2023/06/05 00:31:38;;;;;;;7.23;5.37;;;12.20;99.90;;;;;;4995662;28;20993;-62
2023/06/05 00:34:06;;;;;;;5.00;4.50;;;12.10;99.90;;;;;;4987136;28;20491;-63
2023/06/05 00:36:36;;;;;;;5.67;4.53;;;12.10;99.90;;;;;;4991750;28;20479;-62
2023/06/05 00:39:06;;;;;;;6.70;4.30;;;12.10;99.90;;;;;;4990536;28;20480;-61
2023/06/05 00:41:34;;;;;;;5.60;5.00;;;12.00;99.90;;;;;;4990710;28;20496;-63
2023/06/05 00:44:02;;;;;;;5.23;4.83;;;12.00;99.90;;;;;;4996007;28;20538;-62
2023/06/05 00:46:30;;;;;;;6.13;4.80;;;11.90;99.90;;;;;;4991741;28;20476;-63
2023/06/05 00:48:58;;;;;;;5.10;4.60;;;11.90;99.90;;;;;;4995554;28;20558;-62
2023/06/05 00:51:26;;;;;;;6.73;5.10;;;11.90;99.90;;;;;;4998980;28;20606;-62
2023/06/05 00:53:55;;;;;;;7.00;5.30;;;11.90;99.90;;;;;;4995611;28;20937;-63
2023/06/05 00:56:24;;;;;;;6.90;5.33;;;11.90;99.90;;;;;;4995089;28;20905;-63
2023/06/05 00:58:54;;;;;;;6.90;4.50;;;11.80;99.90;;;;;;4993146;28;20472;-63
2023/06/05 01:01:24;;;;;;;6.80;5.40;;;11.80;99.90;;;;;;4992080;28;20533;-63
2023/06/05 01:03:52;;;;;;;5.47;4.63;;;11.80;99.90;;;;;;4985204;28;20488;-63
2023/06/05 01:06:20;;;;;;;7.20;5.27;;;11.70;99.90;;;;;;4991117;28;20472;-63
2023/06/05 01:08:50;;;;;;;6.23;4.77;;;11.70;99.90;;;;;;4985903;28;20475;-62
2023/06/05 01:11:23;;;;;;;6.00;4.73;;;11.70;99.90;;;;;;4994967;28;20508;-62
2023/06/05 01:14:01;;;;;;;5.03;4.53;;;11.60;99.90;;;;;;4991585;28;20521;-63
2023/06/05 01:16:30;;;;;;;6.10;5.10;;;11.60;99.90;;;;;;4996301;28;20463;-62
2023/06/05 01:19:02;;;;;;;5.40;4.90;;;11.60;99.90;;;;;;4992820;28;20568;-62
2023/06/05 01:21:31;;;;;;;5.47;4.73;;;11.60;99.90;;;;;;4992757;28;20498;-63
2023/06/05 01:24:01;;;;;;;5.60;5.03;;;11.50;99.90;;;;;;4996045;28;20475;-62
2023/06/05 01:26:36;;;;;;;6.27;5.47;;;11.50;99.90;;;;;;4991753;28;21151;-63
2023/06/05 01:29:07;;;;;;;5.70;5.03;;;11.50;99.90;;;;;;4988678;28;20793;-61
2023/06/05 01:31:36;;;;;;;6.97;5.20;;;11.40;99.90;;;;;;4994186;28;20491;-62
2023/06/05 01:34:11;;;;;;;7.50;5.13;;;11.40;99.90;;;;;;4996072;28;20500;-62
2023/06/05 01:36:40;;;;;;;5.20;4.80;;;11.30;99.90;;;;;;4994384;28;20471;-62
2023/06/05 01:39:11;;;;;;;5.97;5.37;;;11.30;99.90;;;;;;4996128;28;20476;-61
2023/06/05 01:41:40;;;;;;;6.03;5.07;;;11.30;99.90;;;;;;4994546;28;21061;-62
2023/06/05 01:44:09;;;;;;;6.10;5.50;;;11.30;99.90;;;;;;4992950;28;20464;-62
2023/06/05 01:46:37;;;;;;;5.80;5.30;;;11.20;99.90;;;;;;4992283;28;21224;-63
2023/06/05 01:49:05;;;;;;;5.23;4.83;;;11.20;99.90;;;;;;4994191;28;20555;-62
2023/06/05 01:51:33;;;;;;;5.87;5.30;;;11.30;99.90;;;;;;4996325;28;20595;-62
2023/06/05 01:54:01;;;;;;;6.37;5.77;;;11.30;99.90;;;;;;4994511;28;20965;-61
2023/06/05 01:56:32;;;;;;;6.87;5.50;;;11.20;99.90;;;;;;4992642;28;20896;-62
2023/06/05 01:59:06;;;;;;;6.30;5.50;;;11.20;99.90;;;;;;4997373;28;20473;-62
2023/06/05 02:01:35;;;;;;;7.00;6.00;;;11.10;99.90;;;;;;4988833;28;20524;-62
2023/06/05 02:04:05;;;;;;;7.13;5.80;;;11.10;99.90;;;;;;4989122;28;20559;-62
2023/06/05 02:06:41;;;;;;;6.47;5.90;;;11.10;99.90;;;;;;4993939;28;20503;-62
2023/06/05 02:09:10;;;;;;;7.63;6.00;;;11.00;99.90;;;;;;4993143;28;21000;-63
2023/06/05 02:11:42;;;;;;;9.70;5.90;;;11.00;99.90;;;;;;4987058;28;20496;-61
2023/06/05 02:14:12;;;;;;;6.80;6.07;;;10.90;99.90;;;;;;4987074;28;20563;-62
2023/06/05 02:16:41;;;;;;;6.23;5.70;;;10.90;99.90;;;;;;4992761;28;20465;-63
2023/06/05 02:19:10;;;;;;;6.00;5.40;;;10.90;99.90;;;;;;4991456;28;20498;-63
2023/06/05 02:21:39;;;;;;;8.20;6.23;;;10.90;99.90;;;;;;4991192;28;20534;-63
2023/06/05 02:24:07;;;;;;;6.40;5.77;;;10.90;99.90;;;;;;5012219;28;20616;-62
2023/06/05 02:26:36;;;;;;;6.77;5.37;;;10.80;99.90;;;;;;5016108;28;20492;-63
2023/06/05 02:29:06;;;;;;;7.73;6.00;;;10.80;99.90;;;;;;4991975;28;21059;-63
2023/06/05 02:31:34;;;;;;;8.60;6.47;;;10.90;99.90;;;;;;4992989;28;20567;-63
2023/06/05 02:34:03;;;;;;;8.67;5.97;;;10.80;99.90;;;;;;4991389;28;21047;-62
2023/06/05 02:36:32;;;;;;;7.07;5.77;;;10.80;99.90;;;;;;4995179;28;20496;-62
2023/06/05 02:39:01;;;;;;;7.70;6.13;;;10.70;99.90;;;;;;4995021;28;20516;-62
2023/06/05 02:41:29;;;;;;;6.43;5.73;;;10.70;99.90;;;;;;4995040;28;20492;-63
2023/06/05 02:43:59;;;;;;;6.87;6.13;;;10.60;99.90;;;;;;4991753;28;20539;-63
2023/06/05 02:46:29;;;;;;;6.13;5.53;;;10.60;99.90;;;;;;4997169;28;20865;-62
2023/06/05 02:48:57;;;;;;;7.37;6.10;;;10.60;99.90;;;;;;4998346;28;20470;-63
2023/06/05 02:51:25;;;;;;;8.50;6.03;;;10.60;99.90;;;;;;5005565;28;20454;-61
2023/06/05 02:53:53;;;;;;;9.27;5.90;;;10.60;99.90;;;;;;5014254;28;20519;-62
2023/06/05 02:56:22;;;;;;;6.50;5.70;;;10.70;99.90;;;;;;4999332;28;20559;-62
2023/06/05 02:58:51;;;;;;;6.67;6.00;;;10.60;99.90;;;;;;4995773;28;20477;-62
2023/06/05 03:01:21;;;;;;;6.10;5.50;;;10.50;99.90;;;;;;4994134;28;20491;-63
2023/06/05 03:03:52;;;;;;;6.93;6.23;;;10.50;99.90;;;;;;4992217;28;20500;-62
2023/06/05 03:06:20;;;;;;;6.63;6.03;;;10.50;99.90;;;;;;4990729;28;20528;-62
2023/06/05 03:08:48;;;;;;;6.67;6.07;;;10.50;99.90;;;;;;4990178;28;20888;-63
2023/06/05 03:11:16;;;;;;;7.37;6.63;;;10.40;99.90;;;;;;4991920;28;20539;-62
2023/06/05 03:13:44;;;;;;;8.50;6.40;;;10.40;99.90;;;;;;4997076;28;20587;-62
2023/06/05 03:16:12;;;;;;;6.40;5.70;;;10.50;99.90;;;;;;4988256;28;20468;-62
2023/06/05 03:18:41;;;;;;;6.70;6.00;;;10.50;99.90;;;;;;4993474;28;20584;-63
2023/06/05 03:21:10;;;;;;;7.00;6.30;;;10.40;99.90;;;;;;4990924;28;20494;-62
2023/06/05 03:23:38;;;;;;;7.23;6.50;;;10.50;99.90;;;;;;4993811;28;23127;-62
2023/06/05 03:26:06;;;;;;;6.67;5.97;;;10.40;99.90;;;;;;4988266;28;20492;-62
2023/06/05 03:28:36;;;;;;;7.00;6.30;;;10.40;99.90;;;;;;4992433;28;20567;-62
2023/06/05 03:31:04;;;;;;;7.00;6.37;;;10.40;99.90;;;;;;4984367;28;20504;-64
2023/06/05 03:33:32;;;;;;;7.50;6.30;;;10.40;99.90;;;;;;4987759;28;21024;-62
2023/06/05 03:36:01;;;;;;;7.00;6.07;;;10.30;99.90;;;;;;4987044;28;20551;-63
2023/06/05 03:38:31;;;;;;;7.73;6.70;;;10.30;99.90;;;;;;4989728;28;20468;-63
2023/06/05 03:40:59;;;;;;;6.67;5.90;;;10.40;99.90;;;;;;4994442;28;20486;-62
2023/06/05 03:43:27;;;;;;;7.73;6.30;;;10.40;99.90;;;;;;4995146;28;20515;-62
2023/06/05 03:45:55;;;;;;;8.63;5.97;;;10.40;99.90;;;;;;4992283;28;21065;-62
2023/06/05 03:48:23;;;;;;;8.83;6.13;;;10.40;99.90;;;;;;4993423;28;20553;-61
2023/06/05 03:50:53;;;;;;;8.40;6.40;;;10.40;99.90;;;;;;4989970;28;21000;-65
2023/06/05 03:53:22;;;;;;;8.90;7.00;;;10.50;99.90;;;;;;4988917;28;20496;-62
2023/06/05 03:55:52;;;;;;;8.00;6.90;;;10.50;99.90;;;;;;4982678;28;20475;-62
2023/06/05 03:58:20;;;;;;;6.67;5.90;;;10.50;99.90;;;;;;4990201;28;20468;-63
2023/06/05 04:00:49;;;;;;;6.77;6.17;;;10.50;99.90;;;;;;4984979;28;20472;-63
2023/06/05 04:03:18;;;;;;;6.40;5.80;;;10.50;99.90;;;;;;4988660;28;20500;-62
2023/06/05 04:05:46;;;;;;;10.50;7.50;;;10.50;99.90;;;;;;4987235;28;20491;-62
2023/06/05 04:08:14;;;;;;;9.73;7.07;;;10.50;99.90;;;;;;4986841;28;20919;-63
2023/06/05 04:10:42;;;;;;;6.80;6.20;;;10.50;99.90;;;;;;4995247;28;20564;-63
2023/06/05 04:13:12;;;;;;;7.40;6.67;;;10.60;99.90;;;;;;4998348;28;20488;-61
2023/06/05 04:15:40;;;;;;;7.60;6.80;;;10.60;99.90;;;;;;4989176;28;20464;-62
2023/06/05 04:18:08;;;;;;;7.83;7.03;;;10.60;99.90;;;;;;4988668;28;20571;-61
2023/06/05 04:20:36;;;;;;;9.10;6.70;;;10.70;99.90;;;;;;4993548;28;20499;-61
2023/06/05 04:23:04;;;;;;;7.57;6.87;;;10.70;99.90;;;;;;4994042;28;20484;-63
2023/06/05 04:25:32;;;;;;;7.67;6.40;;;10.70;99.90;;;;;;4999907;28;20472;-61
2023/06/05 04:28:01;;;;;;;7.93;7.10;;;10.80;99.90;;;;;;4998532;28;20567;-61
2023/06/05 04:30:30;;;;;;;9.43;6.97;;;10.90;99.90;;;;;;5023192;28;20449;-63
2023/06/05 04:32:59;;;;;;;9.20;7.40;;;10.90;99.90;;;;;;5005337;28;20576;-63
2023/06/05 04:35:27;;;;;;;7.60;6.70;;;10.90;99.90;;;;;;4996985;28;20483;-62
2023/06/05 04:37:56;;;;;;;7.77;7.03;;;11.00;99.90;;;;;;4990992;28;20555;-62
2023/06/05 04:40:25;;;;;;;9.60;7.30;;;11.00;99.90;;;;;;4994031;28;20480;-62
2023/06/05 04:42:54;;;;;;;10.83;7.40;;;11.00;99.90;;;;;;4985889;28;20579;-63
2023/06/05 04:45:22;;;;;;;8.60;7.60;;;11.00;99.90;;;;;;4997740;28;20863;-62
2023/06/05 04:47:51;;;;;;;8.30;7.10;;;11.10;99.90;;;;;;4998054;28;20911;-61
2023/06/05 04:50:25;;;;;;;8.33;6.83;;;11.20;99.90;;;;;;4995556;28;20472;-62
2023/06/05 04:52:54;;;;;;;10.10;7.73;;;11.20;99.90;;;;;;4997638;28;20488;-62
2023/06/05 04:55:22;;;;;;;11.50;7.53;;;11.30;99.90;;;;;;4996987;28;20468;-63
2023/06/05 04:57:51;;;;;;;9.43;7.90;;;11.30;99.90;;;;;;4996165;28;20563;-63
2023/06/05 05:00:19;;;;;;;7.70;6.90;;;11.40;99.90;;;;;;4987654;28;21000;-63
2023/06/05 05:02:47;;;;;;;9.17;7.77;;;11.40;99.90;;;;;;4992202;28;20524;-62
2023/06/05 05:05:17;;;;;;;9.30;8.00;;;11.50;99.90;;;;;;4985248;28;20475;-67
2023/06/05 05:07:46;;;;;;;8.77;6.90;;;11.50;99.90;;;;;;4969760;28;20900;-65
2023/06/05 05:10:14;;;;;;;7.80;7.00;;;11.50;99.90;;;;;;4968986;28;20591;-68
2023/06/05 05:12:43;;;;;;;8.57;7.30;;;11.60;99.90;;;;;;4968867;28;21269;-65
2023/06/05 05:15:11;;;;;;;10.17;8.30;;;11.70;99.90;;;;;;4975279;28;20484;-63
2023/06/05 05:17:39;;;;;;;9.27;7.57;;;11.80;99.90;;;;;;4985100;28;20461;-69
2023/06/05 05:20:08;;;;;;;9.90;7.93;;;11.90;99.90;;;;;;4965451;28;20480;-67
2023/06/05 05:22:38;;;;;;;9.77;8.07;;;11.90;99.90;;;;;;4966295;28;20872;-65
2023/06/05 05:25:07;;;;;;;10.87;8.20;;;12.10;99.90;;;;;;4962131;28;20477;-66
2023/06/05 05:27:35;;;;;;;8.50;7.50;;;12.10;99.90;;;;;;5000353;28;20492;-64
2023/06/05 05:30:04;;;;;;;10.23;8.03;;;12.20;99.90;;;;;;5003546;28;20531;-61
2023/06/05 05:32:34;;;;;;;10.03;6.83;;;12.30;99.90;;;;;;5015442;28;20484;-62
2023/06/05 05:35:02;;;;;;;10.67;8.40;;;12.40;99.90;;;;;;5011857;28;20469;-60
2023/06/05 05:37:33;;;;;;;11.00;7.73;;;12.40;99.90;;;;;;5001495;28;20464;-60
2023/06/05 05:40:03;;;;;;;8.37;7.40;;;12.50;99.90;;;;;;4992056;28;20468;-62
2023/06/05 05:42:31;;;;;;;8.83;7.93;;;12.60;99.90;;;;;;4984801;28;21007;-62
2023/06/05 05:44:59;;;;;;;8.53;7.50;;;12.70;99.90;;;;;;4993670;28;20479;-62
2023/06/05 05:47:27;;;;;;;10.40;7.47;;;12.70;99.90;;;;;;4983897;28;20595;-63
2023/06/05 05:49:55;;;;;;;8.10;7.30;;;12.70;99.90;;;;;;4994601;28;20495;-60
2023/06/05 05:52:23;;;;;;;12.00;7.50;;;12.70;99.90;;;;;;4990255;28;20524;-61
2023/06/05 05:54:51;;;;;;;8.63;7.43;;;12.80;99.90;;;;;;4994536;28;20475;-66
2023/06/05 05:57:21;;;;;;;10.50;7.30;;;12.80;99.90;;;;;;4997657;28;20896;-62
2023/06/05 05:59:49;;;;;;;7.67;6.97;;;12.90;99.90;;;;;;4995336;28;20564;-62
2023/06/05 06:02:17;;;;;;;7.87;7.07;;;12.90;99.90;;;;;;4992501;28;20501;-63
2023/06/05 06:04:46;;;;;;;10.40;7.03;;;13.00;99.90;;;;;;4995826;28;20480;-62
2023/06/05 06:07:14;;;;;;;10.37;7.80;;;13.00;99.90;;;;;;4989159;28;20496;-62
2023/06/05 06:09:42;;;;;;;8.60;7.40;;;13.10;99.90;;;;;;4989995;28;20473;-63
2023/06/05 06:12:10;;;;;;;10.27;7.07;;;13.10;99.90;;;;;;4993154;28;20540;-62
2023/06/05 06:14:40;;;;;;;8.40;7.10;;;13.20;99.90;;;;;;4992524;28;21027;-61
2023/06/05 06:17:10;;;;;;;10.13;6.77;;;13.30;99.90;;;;;;4991340;28;20507;-65
2023/06/05 06:19:38;;;;;;;7.60;6.77;;;13.30;99.90;;;;;;4989238;28;20466;-64
2023/06/05 06:22:11;;;;;;;10.80;7.23;;;13.40;99.90;;;;;;4991645;28;20583;-64
2023/06/05 06:24:40;;;;;;;7.33;6.13;;;13.50;99.90;;;;;;4995773;28;20472;-64
2023/06/05 06:27:10;;;;;;;7.80;7.00;;;13.60;99.90;;;;;;4994329;28;20472;-64
2023/06/05 06:29:59;;;;;;;8.07;7.23;;;13.60;99.90;;;;;;4990622;28;20461;-64
2023/06/05 06:32:27;;;;;;;7.67;6.40;;;13.70;99.90;;;;;;4991380;28;20497;-65
2023/06/05 06:34:56;;;;;;;8.20;7.20;;;13.70;99.90;;;;;;5006876;28;20609;-65
2023/06/05 06:37:24;;;;;;;6.57;5.93;;;13.80;99.90;;;;;;5012564;28;20456;-64
2023/06/05 06:39:52;;;;;;;7.40;6.70;;;13.80;99.90;;;;;;4995010;28;20476;-64
2023/06/05 06:42:20;;;;;;;9.40;6.73;;;13.90;99.90;;;;;;4996387;28;20510;-64
2023/06/05 06:44:49;;;;;;;9.90;7.47;;;14.00;99.90;;;;;;4993847;28;20507;-64
2023/06/05 06:47:18;;;;;;;7.50;6.50;;;14.20;99.90;;;;;;4991502;28;20532;-64
2023/06/05 06:49:46;;;;;;;8.63;6.13;;;14.30;99.90;;;;;;4994200;28;20472;-64
2023/06/05 06:52:14;;;;;;;10.43;6.40;;;14.40;99.90;;;;;;4998408;28;20599;-64
2023/06/05 06:54:42;;;;;;;7.93;6.70;;;14.40;99.90;;;;;;4996450;28;20487;-64
2023/06/05 06:57:10;;;;;;;7.63;6.67;;;14.50;99.90;;;;;;4991749;28;20563;-64
2023/06/05 06:59:40;;;;;;;6.13;5.50;;;14.60;99.90;;;;;;4989427;28;20507;-65
2023/06/05 07:02:13;;;;;;;6.53;5.53;;;14.70;99.90;;;;;;4991879;28;20499;-65
2023/06/05 07:04:43;;;;;;;6.87;5.60;;;14.80;99.90;;;;;;4986935;28;20849;-64
2023/06/05 07:07:12;;;;;;;7.53;5.73;;;15.00;99.90;;;;;;4987632;28;20973;-65
2023/06/05 07:09:40;;;;;;;6.80;5.57;;;15.00;99.90;;;;;;4994509;28;20503;-64
2023/06/05 07:12:09;;;;;;;6.53;5.47;;;15.10;99.90;;;;;;4990258;28;20491;-65
2023/06/05 07:14:39;;;;;;;6.50;5.73;;;15.20;99.90;;;;;;4987037;28;20598;-64
2023/06/05 07:17:07;;;;;;;6.13;4.57;;;15.30;99.90;;;;;;4989689;28;20464;-64
2023/06/05 07:19:37;;;;;;;6.27;5.67;;;15.40;99.90;;;;;;4991243;28;20476;-65
2023/06/05 07:22:07;;;;;;;6.00;5.40;;;15.50;99.90;;;;;;4992663;28;20636;-65
2023/06/05 07:24:36;;;;;;;5.83;4.90;;;15.60;99.90;;;;;;4990382;28;20936;-64
2023/06/05 07:27:05;;;;;;;8.90;5.40;;;15.60;99.90;;;;;;4994437;28;20488;-64
2023/06/05 07:29:33;;;;;;;5.53;5.03;;;15.70;99.90;;;;;;4992491;28;20496;-64
2023/06/05 07:32:05;;;;;;;5.70;4.50;;;15.70;99.90;;;;;;4988893;28;20563;-64
2023/06/05 07:34:36;;;;;;;6.60;4.87;;;15.80;99.90;;;;;;4987060;28;20632;-65
2023/06/05 07:37:07;;;;;;;7.07;4.80;;;15.80;99.90;;;;;;4989491;28;20511;-64
2023/06/05 07:39:35;;;;;;;6.70;5.43;;;16.00;99.90;;;;;;4991743;28;20551;-64
2023/06/05 07:42:05;;;;;;;5.23;4.60;;;16.10;99.90;;;;;;4991218;28;20498;-64
2023/06/05 07:44:33;;;;;;;4.97;4.57;;;16.20;99.90;;;;;;4991146;28;20570;-64
2023/06/05 07:47:01;;;;;;;8.43;4.97;;;16.20;99.90;;;;;;5000083;28;20495;-65
2023/06/05 07:49:31;;;;;;;6.87;4.60;;;16.30;99.90;;;;;;5014216;28;20551;-67
2023/06/05 07:52:00;;;;;;;7.30;4.97;;;16.40;99.90;;;;;;5003521;28;20484;-64
2023/06/05 07:54:30;;;;;;;8.13;4.53;;;16.50;99.90;;;;;;4997721;28;20594;-64
2023/06/05 07:56:59;;;;;;;5.60;4.70;;;16.50;99.90;;;;;;4996156;28;20479;-64
2023/06/05 07:59:27;;;;;;;5.30;4.80;;;16.60;99.90;;;;;;4996851;28;20492;-64
2023/06/05 08:01:56;;;;;;;4.80;4.40;;;16.80;99.90;;;;;;4998021;28;20507;-65
2023/06/05 08:04:27;;;;;;;4.77;4.23;;;16.80;99.90;;;;;;4995311;28;20563;-64
2023/06/05 08:06:56;;;;;;;5.07;4.57;;;16.80;99.90;;;;;;4997582;28;21065;-64
2023/06/05 08:09:24;;;;;;;5.53;4.20;;;16.80;99.90;;;;;;4997347;28;20514;-64
2023/06/05 08:11:53;;;;;;;6.93;5.20;;;16.90;99.90;;;;;;4998504;28;20531;-65
2023/06/05 08:14:24;;;;;;;4.90;4.33;;;16.90;99.90;;;;;;4999092;28;20495;-64
2023/06/05 08:16:52;;;;;;;4.50;3.87;;;17.00;99.90;;;;;;4998457;28;20689;-65
2023/06/05 08:19:20;;;;;;;4.00;3.60;;;17.10;99.90;;;;;;4997024;28;20887;-64
2023/06/05 08:21:53;;;;;;;4.07;3.63;;;17.10;99.90;;;;;;4997156;28;20515;-66
2023/06/05 08:24:21;;;;;;;4.20;3.67;;;17.30;99.90;;;;;;4998577;28;20709;-64
2023/06/05 08:26:49;;;;;;;4.43;4.03;;;17.40;99.90;;;;;;4999661;28;20564;-64
2023/06/05 08:29:19;;;;;;;3.80;3.50;;;17.50;99.90;;;;;;4995767;28;21021;-65
2023/06/05 08:31:47;;;;;;;4.47;3.87;;;17.50;99.90;;;;;;4995541;28;20508;-65
2023/06/05 08:34:15;;;;;;;5.53;3.87;;;17.60;99.90;;;;;;4998365;28;20827;-65
2023/06/05 08:36:44;;;;;;;5.40;3.63;;;17.70;99.90;;;;;;4997469;28;20473;-64
2023/06/05 08:39:12;;;;;;;4.27;3.80;;;17.70;99.90;;;;;;4996981;28;20468;-64
2023/06/05 08:41:42;;;;;;;5.50;3.27;;;17.70;99.90;;;;;;5001990;28;20494;-65
2023/06/05 08:44:12;;;;;;;4.97;4.20;;;17.80;99.90;;;;;;4999690;28;20552;-65
2023/06/05 08:46:44;;;;;;;4.07;3.37;;;17.90;99.90;;;;;;4996013;28;20472;-64
2023/06/05 08:49:14;;;;;;;5.90;4.20;;;17.90;99.90;;;;;;4994962;28;21096;-64
2023/06/05 08:51:43;;;;;;;3.83;3.50;;;18.00;99.90;;;;;;4998882;28;20575;-64
2023/06/05 08:54:14;;;;;;;5.40;3.73;;;18.10;99.90;;;;;;4997778;28;20482;-64
2023/06/05 08:56:43;;;;;;;5.40;3.60;;;18.10;99.90;;;;;;5000874;28;20554;-65
2023/06/05 08:59:14;;;;;;;4.77;3.90;;;18.30;99.90;;;;;;4998575;28;20478;-64
2023/06/05 09:01:47;;;;;;;4.67;3.40;;;18.50;99.90;;;;;;4995779;28;20538;-64
2023/06/05 09:04:15;;;;;;;3.83;3.53;;;18.70;99.90;;;;;;4999374;28;20468;-64
2023/06/05 09:06:46;;;;;;;6.20;3.50;;;18.80;99.90;;;;;;4999630;28;20473;-65
2023/06/05 09:09:15;;;;;;;5.83;3.93;;;18.90;99.90;;;;;;4992471;28;21116;-65
2023/06/05 09:11:43;;;;;;;4.80;3.40;;;18.90;99.90;;;;;;4999871;28;20555;-65
2023/06/05 09:14:12;;;;;;;3.93;3.40;;;18.90;99.90;;;;;;4996459;28;20474;-64
2023/06/05 09:16:42;;;;;;;3.97;3.67;;;19.00;99.90;;;;;;4995047;28;20473;-65
2023/06/05 09:19:12;;;;;;;5.07;3.80;;;19.00;99.90;;;;;;4996521;28;20962;-64
2023/06/05 09:21:41;;;;;;;6.27;4.03;;;19.00;99.90;;;;;;4997145;28;20530;-64
2023/06/05 09:24:16;;;;;;;3.50;3.20;;;19.10;99.90;;;;;;4993689;28;21844;-65
2023/06/05 09:26:48;;;;;;;4.97;4.07;;;19.20;99.90;;;;;;4997571;28;20467;-66
2023/06/05 09:29:21;;;;;;;6.03;3.90;;;19.40;99.90;;;;;;4996833;28;20496;-65
2023/06/05 09:31:50;;;;;;;3.90;3.47;;;19.60;99.90;;;;;;4993902;28;21064;-65
2023/06/05 09:34:28;;;;;;;4.27;3.80;;;19.70;99.90;;;;;;4995578;28;20500;-65
2023/06/05 09:36:57;;;;;;;3.53;3.27;;;19.70;99.90;;;;;;4997908;28;20503;-65
2023/06/05 09:39:26;;;;;;;3.80;3.50;;;19.70;99.90;;;;;;4994853;28;20473;-65
2023/06/05 09:41:55;;;;;;;4.67;3.67;;;19.80;99.90;;;;;;4996440;28;20567;-66
2023/06/05 09:44:24;;;;;;;4.70;3.70;;;19.90;99.90;;;;;;4994171;28;20559;-65
2023/06/05 09:46:54;;;;;;;4.67;3.67;;;20.00;99.90;;;;;;4995870;28;20548;-65
2023/06/05 09:49:27;;;;;;;3.80;3.40;;;20.10;99.90;;;;;;4993634;28;20518;-65
2023/06/05 09:51:57;;;;;;;4.43;3.33;;;20.10;99.90;;;;;;4996435;28;20565;-66
2023/06/05 09:54:27;;;;;;;4.07;3.57;;;20.20;99.90;;;;;;4996717;28;20475;-64
2023/06/05 09:56:59;;;;;;;3.60;3.20;;;20.20;99.90;;;;;;4996099;28;21043;-64
2023/06/05 09:59:31;;;;;;;4.90;3.40;;;20.10;99.90;;;;;;4995187;28;20461;-64
2023/06/05 10:02:04;;;;;;;3.37;3.03;;;20.10;99.90;;;;;;4995103;28;21008;-63
2023/06/05 10:04:41;;;;;;;5.17;3.47;;;20.30;99.90;;;;;;4994514;28;20473;-63
2023/06/05 10:07:10;;;;;;;3.00;2.70;;;20.40;99.90;;;;;;4994592;28;20488;-63
2023/06/05 10:09:39;;;;;;;3.30;3.00;;;20.50;99.90;;;;;;4997598;28;21070;-63
2023/06/05 10:12:08;;;;;;;4.50;3.23;;;20.80;99.90;;;;;;4991009;28;20515;-63
2023/06/05 10:14:42;;;;;;;3.17;2.97;;;20.90;99.90;;;;;;4998201;28;20500;-64
2023/06/05 10:17:12;;;;;;;3.53;3.23;;;21.00;99.90;;;;;;4996819;28;20593;-66
2023/06/05 10:19:45;;;;;;;5.27;3.30;;;21.20;99.90;;;;;;4995354;28;20467;-67
2023/06/05 10:22:14;;;;;;;4.00;3.20;;;21.10;99.90;;;;;;4996944;28;20815;-66
2023/06/05 10:24:45;;;;;;;4.00;3.23;;;21.10;99.90;;;;;;5006178;28;20883;-67
2023/06/05 10:27:50;;;;;;;3.43;3.10;;;21.20;99.90;;;;;;5007879;28;20468;-66
2023/06/05 10:30:52;;;;;;;3.13;2.80;;;21.20;99.90;;;;;;4999743;28;20600;-66
2023/06/05 10:33:37;;;;;;;3.43;2.87;;;21.40;99.90;;;;;;4994695;28;20487;-66
2023/06/05 10:36:21;;;;;;;3.60;3.30;;;21.50;99.90;;;;;;4994665;28;20962;-66
2023/06/05 10:38:50;;;;;;;4.40;3.20;;;21.70;99.90;;;;;;4998558;28;20910;-66
2023/06/05 10:41:19;;;;;;;3.50;3.20;;;21.70;99.90;;;;;;4996997;28;20497;-66
2023/06/05 10:43:49;;;;;;;3.93;2.80;;;21.70;99.90;;;;;;5004812;28;20618;-67
2023/06/05 10:46:31;;;;;;;3.60;3.00;;;21.80;99.90;;;;;;5011919;28;20461;-67
2023/06/05 10:49:09;;;;;;;4.80;3.13;;;21.90;99.90;;;;;;5009520;28;20496;-67
2023/06/05 10:51:40;;;;;;;3.60;3.30;;;22.00;99.90;;;;;;5010430;28;20917;-68
2023/06/05 10:54:10;;;;;;;3.83;3.33;;;22.10;99.90;;;;;;4999688;28;20922;-67
2023/06/05 10:56:56;;;;;;;3.37;3.07;;;22.20;99.90;;;;;;4999094;28;20500;-66
2023/06/05 10:59:25;;;;;;;3.03;2.70;;;22.40;99.90;;;;;;4995439;28;21302;-66
2023/06/05 11:02:27;;;;;;;3.37;3.07;;;22.50;99.90;;;;;;4998215;28;20597;-66
2023/06/05 11:05:10;;;;;;;11.43;5.90;;;22.60;99.90;;;;;;4992606;28;20484;-67
2023/06/05 11:07:40;;;;;;;15.40;7.27;;;22.70;99.90;;;;;;4998812;28;20866;-66
2023/06/05 11:10:15;;;;;;;6.87;3.53;;;22.80;99.90;;;;;;4993079;28;20519;-66
2023/06/05 11:12:59;;;;;;;3.47;3.00;;;22.80;99.90;;;;;;4997627;28;20488;-67
2023/06/05 11:15:42;;;;;;;3.23;2.73;;;22.90;99.90;;;;;;4995697;28;20568;-66
2023/06/05 11:18:34;;;;;;;3.17;2.97;;;23.10;99.90;;;;;;4996332;28;20602;-66
2023/06/05 11:21:03;;;;;;;4.67;3.07;;;23.20;99.90;;;;;;4981896;28;20579;-66
2023/06/05 11:23:32;;;;;;;3.70;2.80;;;23.30;99.90;;;;;;4987580;28;20578;-66
2023/06/05 11:26:37;;;;;;;4.83;3.60;;;23.40;99.90;;;;;;4986637;28;20974;-66
2023/06/05 11:29:15;;;;;;;3.27;2.97;;;23.50;99.90;;;;;;4990722;28;20468;-66
2023/06/05 11:31:45;;;;;;;5.13;3.30;;;23.60;99.90;;;;;;4989653;28;20492;-66
2023/06/05 11:34:14;;;;;;;3.37;3.07;;;23.60;99.90;;;;;;4990890;28;20508;-67
2023/06/05 11:36:42;;;;;;;2.80;2.40;;;23.80;99.90;;;;;;4989691;28;20563;-68
2023/06/05 11:39:12;;;;;;;3.53;3.00;;;23.90;99.90;;;;;;4999484;28;20458;-67
2023/06/05 11:41:47;;;;;;;3.30;3.10;;;24.00;99.90;;;;;;4994261;28;20567;-67
2023/06/05 11:44:16;;;;;;;4.53;3.10;;;24.10;99.90;;;;;;5002443;28;20474;-66
2023/06/05 11:46:44;;;;;;;4.70;2.80;;;24.30;99.90;;;;;;4997077;28;21041;-66
2023/06/05 11:49:25;;;;;;;5.50;3.20;;;24.50;99.90;;;;;;4995668;28;20483;-66
2023/06/05 11:51:54;;;;;;;5.63;3.10;;;24.60;99.70;;;;;;4991987;28;20493;-67
2023/06/05 11:54:33;;;;;;;4.53;3.20;;;24.70;95.00;;;;;;4999118;28;20564;-66
2023/06/05 11:57:08;;;;;;;3.30;3.00;;;24.60;99.90;;;;;;5000180;28;20467;-66
2023/06/05 11:59:37;;;;;;;3.73;3.13;;;24.60;94.90;;;;;;5000970;28;21085;-66
2023/06/05 12:02:06;;;;;;;5.30;3.63;;;24.50;98.80;;;;;;4993196;28;21166;-66
2023/06/05 12:04:35;;;;;;;7.43;2.80;;;24.40;92.30;;;;;;4993596;28;20518;-66
2023/06/05 12:07:04;;;;;;;3.80;3.50;;;24.40;98.90;;;;;;4994344;28;20654;-67
2023/06/05 12:09:34;;;;;;;2.80;2.60;;;24.40;94.80;;;;;;5001239;28;20511;-67
2023/06/05 12:12:07;;;;;;;3.80;3.33;;;24.30;93.90;;;;;;5001888;28;20480;-67
2023/06/05 12:14:35;;;;;;;6.20;2.83;;;24.30;99.60;;;;;;4996676;28;20652;-67
2023/06/05 12:17:10;;;;;;;3.23;3.00;;;24.40;99.00;;;;;;5001972;28;21042;-66
2023/06/05 12:19:39;;;;;;;3.40;3.10;;;24.60;89.80;;;;;;4996742;28;20475;-67
2023/06/05 12:22:09;;;;;;;3.67;3.10;;;24.60;85.00;;;;;;4999570;28;21044;-66
2023/06/05 12:24:38;;;;;;;3.57;3.00;;;24.70;82.80;;;;;;5001050;28;20477;-67
2023/06/05 12:27:07;;;;;;;3.30;3.00;;;24.80;90.10;;;;;;5000825;28;20526;-67
2023/06/05 12:29:39;;;;;;;3.37;3.07;;;25.00;93.40;;;;;;4999004;28;20515;-66
2023/06/05 12:32:21;;;;;;;3.40;2.50;;;25.20;90.50;;;;;;5000080;28;22448;-66
2023/06/05 12:34:51;;;;;;;3.03;2.83;;;25.50;90.30;;;;;;4999676;28;20560;-67
2023/06/05 12:37:25;;;;;;;2.80;2.60;;;25.70;76.60;;;;;;4999990;28;20567;-67
2023/06/05 12:39:54;;;;;;;4.63;3.23;;;25.80;73.90;;;;;;4997516;28;20468;-67
2023/06/05 12:42:22;;;;;;;4.50;3.40;;;25.80;74.10;;;;;;4994090;28;20498;-66
2023/06/05 12:44:50;;;;;;;2.90;2.70;;;25.70;73.60;;;;;;4999544;28;20904;-66
2023/06/05 12:47:18;;;;;;;4.10;3.13;;;25.70;71.10;;;;;;4999243;28;20481;-67
2023/06/05 12:49:47;;;;;;;3.00;2.80;;;25.80;73.00;;;;;;4999685;28;20482;-66
2023/06/05 12:52:15;;;;;;;3.37;3.03;;;25.90;73.60;;;;;;4994774;28;20492;-66
2023/06/05 12:54:43;;;;;;;3.40;3.10;;;26.00;68.50;;;;;;4996388;28;20562;-67
2023/06/05 12:57:12;;;;;;;3.87;3.57;;;25.90;68.10;;;;;;5002104;28;20477;-66
2023/06/05 12:59:41;;;;;;;3.00;2.80;;;25.70;64.50;;;;;;4996946;28;20475;-66
2023/06/05 13:02:10;;;;;;;3.13;2.70;;;25.60;67.80;;;;;;4995035;28;20515;-66